Chachapoyas, Peru
Current Conditions -  °F | °C
As of 11:30 AM on Monday 24 Nov 2014 (Local Time) from SPJR Reporting Station
Broken Clouds Broken Clouds  
Wind Chill: 20°   Ceiling: 4300
Heat Index: 20°   Visibility: 6mi
Dew Point:   Wind: 6mph
Humidity: 49%   Direction: 50°NE
Pressure: 30.33"   Gusts: NA
Location:  6.23°S, 77.87°W
Report Text: SPJR 241630Z 05005KT 9999 SCT030 BKN043 20/09 Q1027
Loading
Personal Weather Stations






























Interactive Weather Map New forecast layout! Learn more

10-Day Weather Forecast

Advertisements
Track Severe Weather on mobile